sensor_id;sensor_type;location;lat;lon;timestamp;temperature;humidity
33831;DHT22;20137;48.834;8.732;2023-07-20T00:00:27;17.20;98.20
33831;DHT22;20137;48.834;8.732;2023-07-20T00:03:13;17.20;98.10
33831;DHT22;20137;48.834;8.732;2023-07-20T00:05:45;17.20;98.40
33831;DHT22;20137;48.834;8.732;2023-07-20T00:08:11;17.20;98.50
33831;DHT22;20137;48.834;8.732;2023-07-20T00:10:37;17.10;98.60
33831;DHT22;20137;48.834;8.732;2023-07-20T00:13:03;17.00;98.90
33831;DHT22;20137;48.834;8.732;2023-07-20T00:15:28;16.90;99.10
33831;DHT22;20137;48.834;8.732;2023-07-20T00:17:55;16.90;99.40
33831;DHT22;20137;48.834;8.732;2023-07-20T00:20:23;16.80;99.60
33831;DHT22;20137;48.834;8.732;2023-07-20T00:22:49;16.80;99.70
33831;DHT22;20137;48.834;8.732;2023-07-20T00:25:18;16.70;99.80
33831;DHT22;20137;48.834;8.732;2023-07-20T00:27:44;16.80;99.90
33831;DHT22;20137;48.834;8.732;2023-07-20T00:30:10;16.60;99.90
33831;DHT22;20137;48.834;8.732;2023-07-20T00:32:36;16.60;99.90
33831;DHT22;20137;48.834;8.732;2023-07-20T00:35:01;16.60;99.90
33831;DHT22;20137;48.834;8.732;2023-07-20T00:37:27;16.60;99.90
33831;DHT22;20137;48.834;8.732;2023-07-20T00:39:54;16.50;99.90
33831;DHT22;20137;48.834;8.732;2023-07-20T00:42:20;16.50;99.90
33831;DHT22;20137;48.834;8.732;2023-07-20T00:44:45;16.50;99.90
33831;DHT22;20137;48.834;8.732;2023-07-20T00:47:11;16.40;99.90
33831;DHT22;20137;48.834;8.732;2023-07-20T00:49:38;16.30;99.90
33831;DHT22;20137;48.834;8.732;2023-07-20T00:52:06;16.30;99.90
33831;DHT22;20137;48.834;8.732;2023-07-20T00:54:33;16.20;99.90
33831;DHT22;20137;48.834;8.732;2023-07-20T00:57:01;16.10;99.90
33831;DHT22;20137;48.834;8.732;2023-07-20T00:59:27;16.10;99.90
33831;DHT22;20137;48.834;8.732;2023-07-20T01:01:53;16.10;99.90
33831;DHT22;20137;48.834;8.732;2023-07-20T01:04:20;16.00;99.90
33831;DHT22;20137;48.834;8.732;2023-07-20T01:10:03;15.90;99.90
33831;DHT22;20137;48.834;8.732;2023-07-20T01:12:42;15.90;99.90
33831;DHT22;20137;48.834;8.732;2023-07-20T01:15:09;15.90;99.90
33831;DHT22;20137;48.834;8.732;2023-07-20T01:17:35;15.80;99.90
33831;DHT22;20137;48.834;8.732;2023-07-20T01:20:01;15.80;99.90
33831;DHT22;20137;48.834;8.732;2023-07-20T01:22:48;15.60;99.90
33831;DHT22;20137;48.834;8.732;2023-07-20T01:30:52;15.50;99.90
33831;DHT22;20137;48.834;8.732;2023-07-20T01:33:21;15.50;99.90
33831;DHT22;20137;48.834;8.732;2023-07-20T01:35:54;15.50;99.90
33831;DHT22;20137;48.834;8.732;2023-07-20T01:38:22;15.50;99.90
33831;DHT22;20137;48.834;8.732;2023-07-20T01:40:49;15.50;99.90
33831;DHT22;20137;48.834;8.732;2023-07-20T01:43:16;15.40;99.90
33831;DHT22;20137;48.834;8.732;2023-07-20T01:45:41;15.40;99.90
33831;DHT22;20137;48.834;8.732;2023-07-20T01:48:10;15.40;99.90
33831;DHT22;20137;48.834;8.732;2023-07-20T01:50:36;15.40;99.90
33831;DHT22;20137;48.834;8.732;2023-07-20T01:53:02;15.30;99.90
33831;DHT22;20137;48.834;8.732;2023-07-20T01:55:27;15.30;99.90
33831;DHT22;20137;48.834;8.732;2023-07-20T01:57:55;15.30;99.90
33831;DHT22;20137;48.834;8.732;2023-07-20T02:00:20;15.30;99.90
33831;DHT22;20137;48.834;8.732;2023-07-20T02:02:49;15.20;99.90
33831;DHT22;20137;48.834;8.732;2023-07-20T02:05:16;15.20;99.90
33831;DHT22;20137;48.834;8.732;2023-07-20T02:07:44;15.30;99.90
33831;DHT22;20137;48.834;8.732;2023-07-20T02:10:13;15.20;99.90
33831;DHT22;20137;48.834;8.732;2023-07-20T02:12:39;15.20;99.90
33831;DHT22;20137;48.834;8.732;2023-07-20T02:15:06;15.20;99.90
33831;DHT22;20137;48.834;8.732;2023-07-20T02:17:34;15.10;99.90
33831;DHT22;20137;48.834;8.732;2023-07-20T02:19:59;15.10;99.90
33831;DHT22;20137;48.834;8.732;2023-07-20T02:22:25;15.20;99.90
33831;DHT22;20137;48.834;8.732;2023-07-20T02:24:51;15.20;99.90
33831;DHT22;20137;48.834;8.732;2023-07-20T02:27:17;15.20;99.90
33831;DHT22;20137;48.834;8.732;2023-07-20T02:29:43;15.10;99.90
33831;DHT22;20137;48.834;8.732;2023-07-20T02:32:09;15.10;99.90
33831;DHT22;20137;48.834;8.732;2023-07-20T02:34:43;15.10;99.90
33831;DHT22;20137;48.834;8.732;2023-07-20T02:37:09;15.10;99.90
33831;DHT22;20137;48.834;8.732;2023-07-20T02:39:39;15.10;99.90
33831;DHT22;20137;48.834;8.732;2023-07-20T02:42:10;15.00;99.90
33831;DHT22;20137;48.834;8.732;2023-07-20T02:44:37;15.00;99.90
33831;DHT22;20137;48.834;8.732;2023-07-20T02:47:02;15.00;99.90
33831;DHT22;20137;48.834;8.732;2023-07-20T02:49:28;15.10;99.90
33831;DHT22;20137;48.834;8.732;2023-07-20T02:51:54;15.00;99.90
33831;DHT22;20137;48.834;8.732;2023-07-20T02:54:21;15.00;99.90
33831;DHT22;20137;48.834;8.732;2023-07-20T02:56:47;15.00;99.90
33831;DHT22;20137;48.834;8.732;2023-07-20T02:59:13;14.90;99.90
33831;DHT22;20137;48.834;8.732;2023-07-20T03:01:39;14.90;99.90
33831;DHT22;20137;48.834;8.732;2023-07-20T03:04:08;14.90;99.90
33831;DHT22;20137;48.834;8.732;2023-07-20T03:06:35;14.90;99.90
33831;DHT22;20137;48.834;8.732;2023-07-20T03:09:02;14.90;99.90
33831;DHT22;20137;48.834;8.732;2023-07-20T03:11:28;14.80;99.90
33831;DHT22;20137;48.834;8.732;2023-07-20T03:13:54;14.80;99.90
33831;DHT22;20137;48.834;8.732;2023-07-20T03:16:21;14.70;99.90
33831;DHT22;20137;48.834;8.732;2023-07-20T03:18:47;14.70;99.90
33831;DHT22;20137;48.834;8.732;2023-07-20T03:21:13;14.60;99.90
33831;DHT22;20137;48.834;8.732;2023-07-20T03:23:40;14.60;99.90
33831;DHT22;20137;48.834;8.732;2023-07-20T03:26:06;14.60;99.90
33831;DHT22;20137;48.834;8.732;2023-07-20T03:28:34;14.50;99.90
33831;DHT22;20137;48.834;8.732;2023-07-20T03:31:00;14.40;99.90
33831;DHT22;20137;48.834;8.732;2023-07-20T03:33:27;14.40;99.90
33831;DHT22;20137;48.834;8.732;2023-07-20T03:35:55;14.40;99.90
33831;DHT22;20137;48.834;8.732;2023-07-20T03:38:21;14.30;99.90
33831;DHT22;20137;48.834;8.732;2023-07-20T03:40:57;14.40;99.90
33831;DHT22;20137;48.834;8.732;2023-07-20T03:43:26;14.30;99.90
33831;DHT22;20137;48.834;8.732;2023-07-20T03:45:53;14.30;99.90
33831;DHT22;20137;48.834;8.732;2023-07-20T03:48:23;14.40;99.90
33831;DHT22;20137;48.834;8.732;2023-07-20T03:50:50;14.30;99.90
33831;DHT22;20137;48.834;8.732;2023-07-20T03:53:17;14.30;99.90
33831;DHT22;20137;48.834;8.732;2023-07-20T03:55:47;14.30;99.90
33831;DHT22;20137;48.834;8.732;2023-07-20T03:58:14;14.40;99.90
33831;DHT22;20137;48.834;8.732;2023-07-20T04:00:40;14.40;99.90
33831;DHT22;20137;48.834;8.732;2023-07-20T04:03:08;14.40;99.90
33831;DHT22;20137;48.834;8.732;2023-07-20T04:05:34;14.50;99.90
33831;DHT22;20137;48.834;8.732;2023-07-20T04:08:00;14.60;99.90
33831;DHT22;20137;48.834;8.732;2023-07-20T04:10:25;14.70;99.90
33831;DHT22;20137;48.834;8.732;2023-07-20T04:12:51;14.70;99.90
33831;DHT22;20137;48.834;8.732;2023-07-20T04:15:17;14.80;99.90
33831;DHT22;20137;48.834;8.732;2023-07-20T04:17:45;14.90;99.90
33831;DHT22;20137;48.834;8.732;2023-07-20T04:20:10;14.90;99.90
33831;DHT22;20137;48.834;8.732;2023-07-20T04:22:36;15.00;99.90
33831;DHT22;20137;48.834;8.732;2023-07-20T04:25:03;15.10;99.90
33831;DHT22;20137;48.834;8.732;2023-07-20T04:27:29;15.10;99.90
33831;DHT22;20137;48.834;8.732;2023-07-20T04:29:55;15.20;99.90
33831;DHT22;20137;48.834;8.732;2023-07-20T04:32:21;15.10;99.90
33831;DHT22;20137;48.834;8.732;2023-07-20T04:34:47;15.30;99.90
33831;DHT22;20137;48.834;8.732;2023-07-20T04:37:13;15.30;99.90
33831;DHT22;20137;48.834;8.732;2023-07-20T04:39:38;15.40;99.90
33831;DHT22;20137;48.834;8.732;2023-07-20T04:42:04;15.50;99.90
33831;DHT22;20137;48.834;8.732;2023-07-20T04:44:30;15.60;99.90
33831;DHT22;20137;48.834;8.732;2023-07-20T04:46:56;15.70;99.90
33831;DHT22;20137;48.834;8.732;2023-07-20T04:49:22;15.80;99.90
33831;DHT22;20137;48.834;8.732;2023-07-20T04:51:47;16.00;99.90
33831;DHT22;20137;48.834;8.732;2023-07-20T04:54:13;16.20;99.90
33831;DHT22;20137;48.834;8.732;2023-07-20T04:56:39;16.50;99.90
33831;DHT22;20137;48.834;8.732;2023-07-20T04:59:05;16.80;99.90
33831;DHT22;20137;48.834;8.732;2023-07-20T05:01:31;16.90;99.90
33831;DHT22;20137;48.834;8.732;2023-07-20T05:03:56;17.00;99.90
33831;DHT22;20137;48.834;8.732;2023-07-20T05:06:22;17.40;99.90
33831;DHT22;20137;48.834;8.732;2023-07-20T05:08:48;18.10;99.90
33831;DHT22;20137;48.834;8.732;2023-07-20T05:11:13;19.00;99.90
33831;DHT22;20137;48.834;8.732;2023-07-20T05:13:40;19.60;99.90
33831;DHT22;20137;48.834;8.732;2023-07-20T05:16:05;20.20;99.90
33831;DHT22;20137;48.834;8.732;2023-07-20T05:18:31;20.90;99.90
33831;DHT22;20137;48.834;8.732;2023-07-20T05:20:57;21.50;98.90
33831;DHT22;20137;48.834;8.732;2023-07-20T05:23:22;21.80;98.40
33831;DHT22;20137;48.834;8.732;2023-07-20T05:25:58;21.50;98.10
33831;DHT22;20137;48.834;8.732;2023-07-20T05:28:25;21.20;98.60
33831;DHT22;20137;48.834;8.732;2023-07-20T05:30:52;20.80;99.30
33831;DHT22;20137;48.834;8.732;2023-07-20T05:33:19;20.50;99.40
33831;DHT22;20137;48.834;8.732;2023-07-20T05:35:44;20.30;99.90
33831;DHT22;20137;48.834;8.732;2023-07-20T05:38:10;20.30;99.90
33831;DHT22;20137;48.834;8.732;2023-07-20T05:40:38;20.50;99.90
33831;DHT22;20137;48.834;8.732;2023-07-20T05:43:04;20.90;99.40
33831;DHT22;20137;48.834;8.732;2023-07-20T05:45:30;21.30;99.10
33831;DHT22;20137;48.834;8.732;2023-07-20T05:47:55;21.30;99.00
33831;DHT22;20137;48.834;8.732;2023-07-20T05:50:21;21.00;99.00
33831;DHT22;20137;48.834;8.732;2023-07-20T05:52:47;20.50;99.40
33831;DHT22;20137;48.834;8.732;2023-07-20T05:55:13;20.00;99.90
33831;DHT22;20137;48.834;8.732;2023-07-20T05:57:39;20.10;99.90
33831;DHT22;20137;48.834;8.732;2023-07-20T06:00:08;20.30;99.90
33831;DHT22;20137;48.834;8.732;2023-07-20T06:02:34;20.40;99.80
33831;DHT22;20137;48.834;8.732;2023-07-20T06:05:00;20.60;99.70
33831;DHT22;20137;48.834;8.732;2023-07-20T06:07:26;21.00;99.30
33831;DHT22;20137;48.834;8.732;2023-07-20T06:09:52;21.20;99.10
33831;DHT22;20137;48.834;8.732;2023-07-20T06:12:18;21.40;98.40
33831;DHT22;20137;48.834;8.732;2023-07-20T06:14:43;21.50;98.30
33831;DHT22;20137;48.834;8.732;2023-07-20T06:17:09;21.60;98.30
33831;DHT22;20137;48.834;8.732;2023-07-20T06:19:38;21.70;97.70
33831;DHT22;20137;48.834;8.732;2023-07-20T06:22:04;21.80;97.70
33831;DHT22;20137;48.834;8.732;2023-07-20T06:24:29;21.60;98.00
33831;DHT22;20137;48.834;8.732;2023-07-20T06:26:55;21.50;98.00
33831;DHT22;20137;48.834;8.732;2023-07-20T06:29:24;21.70;98.30
33831;DHT22;20137;48.834;8.732;2023-07-20T06:31:50;21.80;98.00
33831;DHT22;20137;48.834;8.732;2023-07-20T06:34:16;21.70;97.90
33831;DHT22;20137;48.834;8.732;2023-07-20T06:36:41;21.40;98.00
33831;DHT22;20137;48.834;8.732;2023-07-20T06:39:07;21.10;99.00
33831;DHT22;20137;48.834;8.732;2023-07-20T06:41:33;20.90;99.20
33831;DHT22;20137;48.834;8.732;2023-07-20T06:43:59;20.80;99.30
33831;DHT22;20137;48.834;8.732;2023-07-20T06:46:34;20.70;99.70
33831;DHT22;20137;48.834;8.732;2023-07-20T06:49:00;20.60;99.40
33831;DHT22;20137;48.834;8.732;2023-07-20T06:51:25;20.40;99.90
33831;DHT22;20137;48.834;8.732;2023-07-20T06:53:51;20.40;99.90
33831;DHT22;20137;48.834;8.732;2023-07-20T06:56:17;20.20;99.90
33831;DHT22;20137;48.834;8.732;2023-07-20T06:58:43;20.00;99.90
33831;DHT22;20137;48.834;8.732;2023-07-20T07:01:09;20.00;99.90
33831;DHT22;20137;48.834;8.732;2023-07-20T07:03:35;19.70;99.90
33831;DHT22;20137;48.834;8.732;2023-07-20T07:06:02;19.40;99.90
33831;DHT22;20137;48.834;8.732;2023-07-20T07:08:27;19.40;99.90
33831;DHT22;20137;48.834;8.732;2023-07-20T07:10:53;19.60;99.90
33831;DHT22;20137;48.834;8.732;2023-07-20T07:13:19;19.90;99.90
33831;DHT22;20137;48.834;8.732;2023-07-20T07:15:45;19.90;99.90
33831;DHT22;20137;48.834;8.732;2023-07-20T07:18:12;19.80;99.90
33831;DHT22;20137;48.834;8.732;2023-07-20T07:20:37;20.00;99.90
33831;DHT22;20137;48.834;8.732;2023-07-20T07:23:03;20.40;99.90
33831;DHT22;20137;48.834;8.732;2023-07-20T07:25:29;20.80;99.90
33831;DHT22;20137;48.834;8.732;2023-07-20T07:27:56;20.80;99.90
33831;DHT22;20137;48.834;8.732;2023-07-20T07:30:25;20.20;99.90
33831;DHT22;20137;48.834;8.732;2023-07-20T07:32:50;19.80;99.90
33831;DHT22;20137;48.834;8.732;2023-07-20T07:35:16;19.70;99.90
33831;DHT22;20137;48.834;8.732;2023-07-20T07:37:42;20.00;99.90
33831;DHT22;20137;48.834;8.732;2023-07-20T07:40:08;19.90;99.90
33831;DHT22;20137;48.834;8.732;2023-07-20T07:42:34;19.70;99.90
33831;DHT22;20137;48.834;8.732;2023-07-20T07:45:00;19.40;99.90
33831;DHT22;20137;48.834;8.732;2023-07-20T07:47:26;19.30;99.90
33831;DHT22;20137;48.834;8.732;2023-07-20T07:49:52;19.20;99.90
33831;DHT22;20137;48.834;8.732;2023-07-20T07:52:17;19.50;99.90
33831;DHT22;20137;48.834;8.732;2023-07-20T07:54:43;19.90;99.90
33831;DHT22;20137;48.834;8.732;2023-07-20T07:57:09;20.10;99.90
33831;DHT22;20137;48.834;8.732;2023-07-20T07:59:35;20.00;99.90
33831;DHT22;20137;48.834;8.732;2023-07-20T08:02:04;20.00;99.90
33831;DHT22;20137;48.834;8.732;2023-07-20T08:04:31;20.30;99.90
33831;DHT22;20137;48.834;8.732;2023-07-20T08:06:57;20.20;99.90
33831;DHT22;20137;48.834;8.732;2023-07-20T08:09:23;20.30;99.90
33831;DHT22;20137;48.834;8.732;2023-07-20T08:11:48;20.10;99.90
33831;DHT22;20137;48.834;8.732;2023-07-20T08:14:15;19.90;99.90
33831;DHT22;20137;48.834;8.732;2023-07-20T08:16:41;19.90;99.90
33831;DHT22;20137;48.834;8.732;2023-07-20T08:19:07;20.00;99.90
33831;DHT22;20137;48.834;8.732;2023-07-20T08:21:32;20.30;99.90
33831;DHT22;20137;48.834;8.732;2023-07-20T08:23:58;20.30;99.90
33831;DHT22;20137;48.834;8.732;2023-07-20T08:26:24;19.90;99.90
33831;DHT22;20137;48.834;8.732;2023-07-20T08:28:50;19.50;99.90
33831;DHT22;20137;48.834;8.732;2023-07-20T08:31:16;19.10;99.90
33831;DHT22;20137;48.834;8.732;2023-07-20T08:33:41;19.20;99.90
33831;DHT22;20137;48.834;8.732;2023-07-20T08:36:08;19.40;99.90
33831;DHT22;20137;48.834;8.732;2023-07-20T08:38:34;19.50;99.90
33831;DHT22;20137;48.834;8.732;2023-07-20T08:41:00;19.70;99.90
33831;DHT22;20137;48.834;8.732;2023-07-20T08:43:27;19.80;99.90
33831;DHT22;20137;48.834;8.732;2023-07-20T08:45:57;19.80;99.90
33831;DHT22;20137;48.834;8.732;2023-07-20T08:48:24;19.80;99.90
33831;DHT22;20137;48.834;8.732;2023-07-20T08:50:51;19.90;99.90
33831;DHT22;20137;48.834;8.732;2023-07-20T08:53:19;20.10;99.90
33831;DHT22;20137;48.834;8.732;2023-07-20T08:55:45;20.30;99.60
33831;DHT22;20137;48.834;8.732;2023-07-20T08:58:13;20.50;99.00
33831;DHT22;20137;48.834;8.732;2023-07-20T09:00:41;20.40;98.50
33831;DHT22;20137;48.834;8.732;2023-07-20T09:03:07;20.30;97.50
33831;DHT22;20137;48.834;8.732;2023-07-20T09:05:33;20.10;97.20
33831;DHT22;20137;48.834;8.732;2023-07-20T09:08:00;20.20;98.20
33831;DHT22;20137;48.834;8.732;2023-07-20T09:10:28;20.30;98.20
33831;DHT22;20137;48.834;8.732;2023-07-20T09:12:54;20.30;97.70
33831;DHT22;20137;48.834;8.732;2023-07-20T09:15:21;20.40;97.50
33831;DHT22;20137;48.834;8.732;2023-07-20T09:17:48;20.60;96.50
33831;DHT22;20137;48.834;8.732;2023-07-20T09:20:18;20.80;96.30
33831;DHT22;20137;48.834;8.732;2023-07-20T09:22:44;20.80;95.20
33831;DHT22;20137;48.834;8.732;2023-07-20T09:25:17;20.90;95.60
33831;DHT22;20137;48.834;8.732;2023-07-20T09:27:46;20.90;95.10
33831;DHT22;20137;48.834;8.732;2023-07-20T09:30:14;20.70;94.40
33831;DHT22;20137;48.834;8.732;2023-07-20T09:32:45;20.70;94.70
33831;DHT22;20137;48.834;8.732;2023-07-20T09:35:15;20.70;95.60
33831;DHT22;20137;48.834;8.732;2023-07-20T09:37:50;20.70;93.50
33831;DHT22;20137;48.834;8.732;2023-07-20T09:40:19;20.60;93.70
33831;DHT22;20137;48.834;8.732;2023-07-20T09:42:45;20.60;94.30
33831;DHT22;20137;48.834;8.732;2023-07-20T09:45:11;20.80;94.50
33831;DHT22;20137;48.834;8.732;2023-07-20T09:47:38;20.90;93.60
33831;DHT22;20137;48.834;8.732;2023-07-20T09:50:05;20.90;92.10
33831;DHT22;20137;48.834;8.732;2023-07-20T09:52:39;21.00;92.30
33831;DHT22;20137;48.834;8.732;2023-07-20T09:55:07;21.10;91.80
33831;DHT22;20137;48.834;8.732;2023-07-20T09:57:34;21.20;93.20
33831;DHT22;20137;48.834;8.732;2023-07-20T10:00:00;21.50;92.70
33831;DHT22;20137;48.834;8.732;2023-07-20T10:02:32;21.80;92.60
33831;DHT22;20137;48.834;8.732;2023-07-20T10:05:02;22.00;91.60
33831;DHT22;20137;48.834;8.732;2023-07-20T10:07:30;22.10;91.80
33831;DHT22;20137;48.834;8.732;2023-07-20T10:09:59;22.10;92.20
33831;DHT22;20137;48.834;8.732;2023-07-20T10:12:27;22.00;91.10
33831;DHT22;20137;48.834;8.732;2023-07-20T10:15:11;21.90;92.40
33831;DHT22;20137;48.834;8.732;2023-07-20T10:17:43;22.20;91.60
33831;DHT22;20137;48.834;8.732;2023-07-20T10:20:16;22.30;92.00
33831;DHT22;20137;48.834;8.732;2023-07-20T10:22:46;22.10;91.30
33831;DHT22;20137;48.834;8.732;2023-07-20T10:25:13;21.50;90.90
33831;DHT22;20137;48.834;8.732;2023-07-20T10:27:40;21.30;91.60
33831;DHT22;20137;48.834;8.732;2023-07-20T10:30:06;21.10;90.70
33831;DHT22;20137;48.834;8.732;2023-07-20T10:32:33;21.00;91.00
33831;DHT22;20137;48.834;8.732;2023-07-20T10:34:59;21.00;91.60
33831;DHT22;20137;48.834;8.732;2023-07-20T10:37:49;21.00;90.10
33831;DHT22;20137;48.834;8.732;2023-07-20T10:43:00;21.30;89.20
33831;DHT22;20137;48.834;8.732;2023-07-20T10:45:53;21.30;90.10
33831;DHT22;20137;48.834;8.732;2023-07-20T10:48:23;21.50;91.40
33831;DHT22;20137;48.834;8.732;2023-07-20T10:51:11;21.90;89.90
33831;DHT22;20137;48.834;8.732;2023-07-20T10:53:38;22.20;90.50
33831;DHT22;20137;48.834;8.732;2023-07-20T10:56:14;21.80;88.90
33831;DHT22;20137;48.834;8.732;2023-07-20T10:58:50;21.60;90.50
33831;DHT22;20137;48.834;8.732;2023-07-20T11:01:16;21.70;91.60
33831;DHT22;20137;48.834;8.732;2023-07-20T11:03:43;21.80;87.30
33831;DHT22;20137;48.834;8.732;2023-07-20T11:09:09;21.70;88.70
33831;DHT22;20137;48.834;8.732;2023-07-20T11:11:37;21.70;88.80
33831;DHT22;20137;48.834;8.732;2023-07-20T11:14:06;22.10;87.90
33831;DHT22;20137;48.834;8.732;2023-07-20T11:19:05;22.20;84.50
33831;DHT22;20137;48.834;8.732;2023-07-20T11:21:38;22.20;82.30
33831;DHT22;20137;48.834;8.732;2023-07-20T11:24:07;22.30;84.10
33831;DHT22;20137;48.834;8.732;2023-07-20T11:26:43;22.40;83.50
33831;DHT22;20137;48.834;8.732;2023-07-20T11:29:09;22.40;82.60
33831;DHT22;20137;48.834;8.732;2023-07-20T11:31:39;22.20;83.70
33831;DHT22;20137;48.834;8.732;2023-07-20T11:34:05;22.10;82.80
33831;DHT22;20137;48.834;8.732;2023-07-20T11:36:32;22.10;83.70
33831;DHT22;20137;48.834;8.732;2023-07-20T11:38:59;21.80;83.60
33831;DHT22;20137;48.834;8.732;2023-07-20T11:41:25;21.90;85.80
33831;DHT22;20137;48.834;8.732;2023-07-20T11:43:53;22.30;85.40
33831;DHT22;20137;48.834;8.732;2023-07-20T11:46:19;22.70;83.80
33831;DHT22;20137;48.834;8.732;2023-07-20T11:48:45;22.60;84.90
33831;DHT22;20137;48.834;8.732;2023-07-20T11:51:15;22.50;86.20
33831;DHT22;20137;48.834;8.732;2023-07-20T11:53:42;22.40;83.40
33831;DHT22;20137;48.834;8.732;2023-07-20T11:56:08;22.30;85.90
33831;DHT22;20137;48.834;8.732;2023-07-20T11:58:34;22.40;85.10
33831;DHT22;20137;48.834;8.732;2023-07-20T12:01:00;22.40;85.80
33831;DHT22;20137;48.834;8.732;2023-07-20T12:03:27;22.80;87.90
33831;DHT22;20137;48.834;8.732;2023-07-20T12:05:52;22.90;89.10
33831;DHT22;20137;48.834;8.732;2023-07-20T12:08:18;23.00;89.10
33831;DHT22;20137;48.834;8.732;2023-07-20T12:10:44;23.00;86.10
33831;DHT22;20137;48.834;8.732;2023-07-20T12:13:10;22.90;83.40
33831;DHT22;20137;48.834;8.732;2023-07-20T12:15:39;22.80;85.20
33831;DHT22;20137;48.834;8.732;2023-07-20T12:18:05;22.90;85.20
33831;DHT22;20137;48.834;8.732;2023-07-20T12:20:35;22.80;83.00
33831;DHT22;20137;48.834;8.732;2023-07-20T12:23:12;22.70;83.20
33831;DHT22;20137;48.834;8.732;2023-07-20T12:25:45;23.00;84.70
33831;DHT22;20137;48.834;8.732;2023-07-20T12:28:15;23.20;83.80
33831;DHT22;20137;48.834;8.732;2023-07-20T12:30:42;23.00;79.10
33831;DHT22;20137;48.834;8.732;2023-07-20T12:33:09;22.80;78.30
33831;DHT22;20137;48.834;8.732;2023-07-20T12:35:37;22.70;77.40
33831;DHT22;20137;48.834;8.732;2023-07-20T12:38:03;22.80;79.40
33831;DHT22;20137;48.834;8.732;2023-07-20T12:40:28;22.80;79.80
33831;DHT22;20137;48.834;8.732;2023-07-20T12:42:55;22.90;80.90
33831;DHT22;20137;48.834;8.732;2023-07-20T12:45:20;23.10;78.70
33831;DHT22;20137;48.834;8.732;2023-07-20T12:47:47;23.20;79.10
33831;DHT22;20137;48.834;8.732;2023-07-20T12:50:13;23.40;79.50
33831;DHT22;20137;48.834;8.732;2023-07-20T12:52:40;23.60;78.30
33831;DHT22;20137;48.834;8.732;2023-07-20T12:55:08;23.60;78.10
33831;DHT22;20137;48.834;8.732;2023-07-20T12:57:35;23.60;77.70
33831;DHT22;20137;48.834;8.732;2023-07-20T13:00:05;23.50;79.10
33831;DHT22;20137;48.834;8.732;2023-07-20T13:02:32;23.50;77.90
33831;DHT22;20137;48.834;8.732;2023-07-20T13:04:58;23.40;77.00
33831;DHT22;20137;48.834;8.732;2023-07-20T13:07:30;23.50;78.10
33831;DHT22;20137;48.834;8.732;2023-07-20T13:09:57;23.80;80.40
33831;DHT22;20137;48.834;8.732;2023-07-20T13:12:24;23.80;77.90
33831;DHT22;20137;48.834;8.732;2023-07-20T13:14:50;23.70;79.30
33831;DHT22;20137;48.834;8.732;2023-07-20T13:17:16;23.60;79.60
33831;DHT22;20137;48.834;8.732;2023-07-20T13:19:44;23.70;78.00
33831;DHT22;20137;48.834;8.732;2023-07-20T13:22:10;23.50;78.10
33831;DHT22;20137;48.834;8.732;2023-07-20T13:24:36;23.50;78.20
33831;DHT22;20137;48.834;8.732;2023-07-20T13:27:02;23.60;79.40
33831;DHT22;20137;48.834;8.732;2023-07-20T13:29:29;23.60;80.50
33831;DHT22;20137;48.834;8.732;2023-07-20T13:31:54;23.80;79.50
33831;DHT22;20137;48.834;8.732;2023-07-20T13:34:20;23.80;78.70
33831;DHT22;20137;48.834;8.732;2023-07-20T13:36:46;23.30;78.20
33831;DHT22;20137;48.834;8.732;2023-07-20T13:39:11;23.60;79.10
33831;DHT22;20137;48.834;8.732;2023-07-20T13:41:37;23.80;79.10
33831;DHT22;20137;48.834;8.732;2023-07-20T13:44:03;23.70;77.60
33831;DHT22;20137;48.834;8.732;2023-07-20T13:46:29;23.40;77.40
33831;DHT22;20137;48.834;8.732;2023-07-20T13:48:55;23.30;80.50
33831;DHT22;20137;48.834;8.732;2023-07-20T13:51:21;23.20;79.90
33831;DHT22;20137;48.834;8.732;2023-07-20T13:53:48;23.10;77.80
33831;DHT22;20137;48.834;8.732;2023-07-20T13:56:14;23.20;79.90
33831;DHT22;20137;48.834;8.732;2023-07-20T13:58:40;23.40;80.80
33831;DHT22;20137;48.834;8.732;2023-07-20T14:01:06;23.40;78.40
33831;DHT22;20137;48.834;8.732;2023-07-20T14:03:31;23.30;76.60
33831;DHT22;20137;48.834;8.732;2023-07-20T14:05:57;23.30;78.90
33831;DHT22;20137;48.834;8.732;2023-07-20T14:08:23;23.30;78.80
33831;DHT22;20137;48.834;8.732;2023-07-20T14:10:51;23.20;78.00
33831;DHT22;20137;48.834;8.732;2023-07-20T14:13:17;23.20;78.40
33831;DHT22;20137;48.834;8.732;2023-07-20T14:15:43;23.20;78.90
33831;DHT22;20137;48.834;8.732;2023-07-20T14:18:09;23.10;79.10
33831;DHT22;20137;48.834;8.732;2023-07-20T14:20:35;23.20;80.70
33831;DHT22;20137;48.834;8.732;2023-07-20T14:23:00;23.30;76.90
33831;DHT22;20137;48.834;8.732;2023-07-20T14:25:26;23.50;78.90
33831;DHT22;20137;48.834;8.732;2023-07-20T14:27:52;23.40;77.10
33831;DHT22;20137;48.834;8.732;2023-07-20T14:30:18;23.30;78.60
33831;DHT22;20137;48.834;8.732;2023-07-20T14:32:44;23.40;79.00
33831;DHT22;20137;48.834;8.732;2023-07-20T14:35:09;23.40;76.90
33831;DHT22;20137;48.834;8.732;2023-07-20T14:37:35;23.60;78.20
33831;DHT22;20137;48.834;8.732;2023-07-20T14:40:01;23.50;78.30
33831;DHT22;20137;48.834;8.732;2023-07-20T14:42:30;23.60;77.30
33831;DHT22;20137;48.834;8.732;2023-07-20T14:44:57;23.60;79.10
33831;DHT22;20137;48.834;8.732;2023-07-20T14:47:23;23.60;77.90
33831;DHT22;20137;48.834;8.732;2023-07-20T14:49:49;23.50;76.00
33831;DHT22;20137;48.834;8.732;2023-07-20T14:52:15;23.30;75.30
33831;DHT22;20137;48.834;8.732;2023-07-20T14:54:43;23.10;75.20
33831;DHT22;20137;48.834;8.732;2023-07-20T14:57:08;23.30;75.50
33831;DHT22;20137;48.834;8.732;2023-07-20T14:59:39;23.40;76.50
33831;DHT22;20137;48.834;8.732;2023-07-20T15:02:07;23.40;75.20
33831;DHT22;20137;48.834;8.732;2023-07-20T15:04:33;23.40;75.80
33831;DHT22;20137;48.834;8.732;2023-07-20T15:06:59;23.60;77.60
33831;DHT22;20137;48.834;8.732;2023-07-20T15:09:25;23.80;76.20
33831;DHT22;20137;48.834;8.732;2023-07-20T15:11:51;23.70;75.00
33831;DHT22;20137;48.834;8.732;2023-07-20T15:14:17;23.70;73.90
33831;DHT22;20137;48.834;8.732;2023-07-20T15:16:42;23.60;75.70
33831;DHT22;20137;48.834;8.732;2023-07-20T15:19:09;23.60;74.50
33831;DHT22;20137;48.834;8.732;2023-07-20T15:21:35;23.50;75.50
33831;DHT22;20137;48.834;8.732;2023-07-20T15:24:00;23.60;76.00
33831;DHT22;20137;48.834;8.732;2023-07-20T15:26:26;23.60;75.10
33831;DHT22;20137;48.834;8.732;2023-07-20T15:28:53;23.70;76.00
33831;DHT22;20137;48.834;8.732;2023-07-20T15:31:19;23.70;75.70
33831;DHT22;20137;48.834;8.732;2023-07-20T15:33:44;23.70;75.50
33831;DHT22;20137;48.834;8.732;2023-07-20T15:36:10;23.70;76.20
33831;DHT22;20137;48.834;8.732;2023-07-20T15:38:36;23.60;75.90
33831;DHT22;20137;48.834;8.732;2023-07-20T15:41:02;23.60;74.80
33831;DHT22;20137;48.834;8.732;2023-07-20T15:43:29;23.60;75.60
33831;DHT22;20137;48.834;8.732;2023-07-20T15:46:47;23.70;77.00